createdAt,value
2023-04-10T00:01:41.356Z,54.50
2023-04-10T00:04:08.027Z,54.40
2023-04-10T00:06:34.698Z,54.50
2023-04-10T00:09:01.195Z,54.50
2023-04-10T00:11:27.671Z,54.60
2023-04-10T00:13:54.312Z,54.40
2023-04-10T00:16:20.960Z,54.40
2023-04-10T00:18:47.452Z,54.30
2023-04-10T00:21:13.917Z,54.40
2023-04-10T00:23:40.400Z,55.00
2023-04-10T00:26:06.882Z,54.20
2023-04-10T00:28:33.362Z,54.40
2023-04-10T00:30:59.866Z,54.30
2023-04-10T00:33:29.543Z,54.00
2023-04-10T00:35:56.036Z,54.30
2023-04-10T00:38:22.536Z,54.30
2023-04-10T00:40:49.015Z,54.40
2023-04-10T00:43:15.492Z,54.00
2023-04-10T00:45:49.904Z,54.00
2023-04-10T00:48:17.174Z,54.10
2023-04-10T00:50:43.645Z,54.30
2023-04-10T00:53:10.128Z,54.10
2023-04-10T00:55:36.614Z,54.10
2023-04-10T00:58:03.097Z,54.20
2023-04-10T01:00:29.605Z,54.00
2023-04-10T01:02:59.499Z,53.90
2023-04-10T01:05:26.106Z,53.90
2023-04-10T01:07:52.594Z,54.00
2023-04-10T01:10:19.077Z,54.20
2023-04-10T01:12:45.610Z,54.00
2023-04-10T01:15:12.119Z,53.90
2023-04-10T01:17:38.716Z,54.00
2023-04-10T01:20:05.204Z,54.30
2023-04-10T01:22:31.677Z,54.50
2023-04-10T01:24:58.139Z,53.80
2023-04-10T01:27:24.624Z,54.10
2023-04-10T01:29:51.087Z,53.90
2023-04-10T01:32:17.543Z,53.90
2023-04-10T01:34:44.104Z,53.80
2023-04-10T01:37:10.666Z,53.80
2023-04-10T01:39:37.137Z,53.70
2023-04-10T01:42:03.619Z,53.90
2023-04-10T01:44:30.088Z,53.70
2023-04-10T01:46:56.562Z,53.80
2023-04-10T01:49:23.055Z,53.70
2023-04-10T01:51:49.537Z,53.90
2023-04-10T01:54:16.010Z,53.60
2023-04-10T01:56:42.477Z,54.00
2023-04-10T01:59:08.961Z,53.80
2023-04-10T02:01:35.559Z,53.60
2023-04-10T02:04:02.183Z,54.00
2023-04-10T02:06:28.729Z,53.70
2023-04-10T02:08:55.223Z,53.80
2023-04-10T02:11:21.713Z,53.70
2023-04-10T02:13:48.199Z,53.70
2023-04-10T02:16:14.709Z,53.50
2023-04-10T02:18:41.218Z,53.60
2023-04-10T02:21:07.676Z,53.60
2023-04-10T02:23:34.151Z,53.70
2023-04-10T02:26:00.629Z,53.60
2023-04-10T02:28:27.083Z,53.50
2023-04-10T02:30:53.566Z,53.50
2023-04-10T02:33:20.076Z,53.30
2023-04-10T02:35:46.626Z,53.70
2023-04-10T02:38:17.525Z,53.70
2023-04-10T02:40:44.075Z,53.60
2023-04-10T02:43:11.679Z,53.50
2023-04-10T02:45:41.436Z,53.80
2023-04-10T02:48:07.891Z,53.50
2023-04-10T02:50:34.340Z,53.30
2023-04-10T02:53:00.829Z,53.20
2023-04-10T02:55:27.310Z,53.40
2023-04-10T02:57:53.776Z,53.40
2023-04-10T03:00:20.295Z,53.40
2023-04-10T03:02:46.939Z,53.60
2023-04-10T03:05:13.512Z,53.20
2023-04-10T03:07:39.998Z,53.40
2023-04-10T03:10:06.472Z,53.40
2023-04-10T03:12:32.944Z,53.50
2023-04-10T03:14:59.411Z,53.40
2023-04-10T03:17:25.901Z,53.50
2023-04-10T03:19:53.427Z,53.50
2023-04-10T03:22:19.906Z,53.40
2023-04-10T03:24:46.381Z,53.40
2023-04-10T03:27:12.866Z,53.30
2023-04-10T03:29:39.327Z,53.10
2023-04-10T03:32:05.790Z,53.10
2023-04-10T03:34:32.270Z,53.00
2023-04-10T03:36:58.837Z,53.30
2023-04-10T03:39:25.319Z,53.00
2023-04-10T03:41:51.801Z,53.30
2023-04-10T03:44:18.276Z,53.10
2023-04-10T03:46:44.784Z,53.30
2023-04-10T03:49:11.341Z,53.30
2023-04-10T03:51:37.830Z,53.30
2023-04-10T03:54:04.318Z,53.20
2023-04-10T03:56:30.774Z,53.30
2023-04-10T03:58:57.238Z,53.00
2023-04-10T04:01:23.703Z,53.10
2023-04-10T04:03:53.924Z,53.20
2023-04-10T04:06:20.691Z,53.30
2023-04-10T04:08:47.151Z,53.20
2023-04-10T04:11:13.633Z,53.00
2023-04-10T04:13:40.119Z,53.00
2023-04-10T04:16:06.601Z,53.10
2023-04-10T04:18:33.059Z,53.10
2023-04-10T04:20:59.512Z,53.10
2023-04-10T04:23:25.988Z,53.10
2023-04-10T04:25:52.449Z,52.80
2023-04-10T04:28:18.953Z,53.10
2023-04-10T04:30:45.417Z,52.90
2023-04-10T04:33:11.893Z,53.10
2023-04-10T04:35:38.410Z,53.10
2023-04-10T04:38:04.919Z,53.00
2023-04-10T04:40:31.407Z,52.90
2023-04-10T04:42:57.869Z,52.80
2023-04-10T04:45:24.330Z,52.80
2023-04-10T04:47:50.831Z,52.70
2023-04-10T04:50:17.381Z,53.10
2023-04-10T04:52:43.849Z,53.00
2023-04-10T04:55:10.411Z,53.00
2023-04-10T04:57:36.880Z,53.00
2023-04-10T05:00:03.386Z,52.50
2023-04-10T05:02:29.935Z,52.70
2023-04-10T05:04:56.469Z,52.70
2023-04-10T05:07:22.934Z,52.80
2023-04-10T05:09:49.415Z,52.80
2023-04-10T05:12:15.882Z,52.60
2023-04-10T05:14:42.383Z,52.60
2023-04-10T05:17:08.874Z,52.60
2023-04-10T05:19:35.503Z,52.80
2023-04-10T05:22:01.983Z,52.80
2023-04-10T05:24:28.510Z,52.70
2023-04-10T05:26:54.977Z,52.60
2023-04-10T05:29:21.535Z,52.60
2023-04-10T05:31:48.037Z,52.70
2023-04-10T05:34:14.537Z,52.60
2023-04-10T05:36:41.014Z,52.70
2023-04-10T05:39:07.512Z,52.70
2023-04-10T05:41:34.003Z,52.60
2023-04-10T05:44:01.338Z,52.50
2023-04-10T05:46:27.822Z,52.50
2023-04-10T05:48:54.521Z,52.10
2023-04-10T05:51:21.175Z,52.40
2023-04-10T05:53:47.672Z,52.30
2023-04-10T05:56:14.167Z,52.10
2023-04-10T05:58:40.685Z,52.80
2023-04-10T06:01:07.165Z,52.10
2023-04-10T06:03:33.811Z,52.00
2023-04-10T06:06:00.363Z,51.80
2023-04-10T06:08:26.832Z,51.80
2023-04-10T06:10:53.300Z,51.80
2023-04-10T06:13:19.774Z,51.60
2023-04-10T06:15:46.267Z,51.80
2023-04-10T06:18:12.740Z,51.60
2023-04-10T06:20:39.208Z,51.40
2023-04-10T06:23:05.671Z,51.60
2023-04-10T06:25:32.150Z,51.30
2023-04-10T06:27:58.628Z,51.30
2023-04-10T06:30:25.093Z,51.30
2023-04-10T06:32:51.619Z,51.50
2023-04-10T06:35:18.117Z,51.20
2023-04-10T06:37:44.576Z,51.10
2023-04-10T06:40:11.644Z,51.10
2023-04-10T06:42:38.133Z,51.10
2023-04-10T06:45:04.626Z,51.20
2023-04-10T06:47:31.144Z,51.10
2023-04-10T06:49:57.660Z,51.10
2023-04-10T06:52:29.712Z,51.20
2023-04-10T06:54:56.213Z,51.00
2023-04-10T06:57:22.695Z,51.10
2023-04-10T06:59:49.209Z,51.20
2023-04-10T07:02:15.736Z,51.30
2023-04-10T07:04:42.288Z,50.90
2023-04-10T07:07:08.738Z,51.00
2023-04-10T07:09:35.200Z,51.00
2023-04-10T07:12:01.680Z,51.20
2023-04-10T07:14:28.164Z,51.00
2023-04-10T07:16:54.641Z,51.10
2023-04-10T07:19:21.123Z,50.90
2023-04-10T07:21:47.607Z,51.20
2023-04-10T07:24:14.078Z,50.90
2023-04-10T07:26:40.562Z,50.90
2023-04-10T07:29:07.050Z,51.00
2023-04-10T07:31:33.594Z,50.90
2023-04-10T07:34:00.179Z,51.00
2023-04-10T07:36:26.658Z,51.20
2023-04-10T07:38:53.427Z,51.00
2023-04-10T07:41:20.166Z,50.90
2023-04-10T07:43:46.641Z,50.80
2023-04-10T07:46:13.187Z,51.00
2023-04-10T07:48:39.712Z,50.90
2023-04-10T07:51:06.184Z,51.40
2023-04-10T07:53:32.644Z,51.10
2023-04-10T07:55:59.114Z,50.80
2023-04-10T07:58:25.592Z,51.10
2023-04-10T08:00:52.087Z,50.80
2023-04-10T08:03:18.780Z,51.00
2023-04-10T08:05:45.378Z,51.30
2023-04-10T08:08:11.840Z,50.90
2023-04-10T08:10:38.347Z,50.90
2023-04-10T08:13:04.819Z,51.10
2023-04-10T08:15:31.292Z,51.50
2023-04-10T08:17:57.862Z,51.50
2023-04-10T08:20:24.407Z,50.90
2023-04-10T08:22:50.906Z,51.10
2023-04-10T08:25:17.367Z,51.30
2023-04-10T08:27:43.846Z,51.00
2023-04-10T08:30:10.314Z,51.10
2023-04-10T08:32:36.824Z,50.90
2023-04-10T08:35:03.314Z,51.20
2023-04-10T08:37:29.805Z,50.90
2023-04-10T08:39:56.266Z,51.10
2023-04-10T08:42:22.746Z,51.30
2023-04-10T08:44:49.212Z,51.10
2023-04-10T08:47:15.708Z,51.40
2023-04-10T08:49:42.196Z,51.00
2023-04-10T08:52:08.665Z,51.00
2023-04-10T08:54:35.146Z,51.30
2023-04-10T08:57:01.726Z,50.70
2023-04-10T08:59:28.260Z,51.00
2023-04-10T09:01:54.843Z,50.90
2023-04-10T09:04:21.688Z,50.90
2023-04-10T09:06:48.390Z,50.50
2023-04-10T09:09:14.884Z,50.40
2023-04-10T09:11:41.386Z,50.60
2023-04-10T09:14:07.864Z,50.60
2023-04-10T09:16:35.716Z,50.80
2023-04-10T09:19:02.201Z,50.50
2023-04-10T09:21:28.756Z,50.70
2023-04-10T09:23:55.489Z,50.60
2023-04-10T09:26:23.752Z,50.60
2023-04-10T09:28:50.239Z,50.90
2023-04-10T09:31:16.728Z,51.40
2023-04-10T09:33:43.228Z,50.50
2023-04-10T09:36:09.754Z,50.70
2023-04-10T09:38:36.249Z,50.90
2023-04-10T09:41:02.719Z,51.10
2023-04-10T09:43:29.209Z,50.50
2023-04-10T09:45:55.670Z,50.80
2023-04-10T09:48:22.133Z,50.80
2023-04-10T09:50:48.613Z,50.60
2023-04-10T09:53:15.109Z,51.00
2023-04-10T09:55:41.598Z,50.70
2023-04-10T09:58:08.122Z,51.10
2023-04-10T10:00:34.631Z,50.50
2023-04-10T10:03:01.341Z,50.80
2023-04-10T10:05:27.957Z,50.40
2023-04-10T10:07:54.434Z,50.80
2023-04-10T10:10:20.913Z,50.90
2023-04-10T10:12:47.432Z,51.00
2023-04-10T10:15:13.948Z,50.70
2023-04-10T10:17:40.470Z,50.60
2023-04-10T10:20:06.981Z,50.50
2023-04-10T10:22:33.467Z,50.20
2023-04-10T10:24:59.958Z,50.40
2023-04-10T10:27:26.422Z,50.00
2023-04-10T10:29:52.892Z,49.80
2023-04-10T10:32:19.368Z,50.20
2023-04-10T10:34:45.845Z,50.00
2023-04-10T10:37:12.326Z,50.60
2023-04-10T10:39:38.812Z,50.40
2023-04-10T10:42:05.285Z,50.30
2023-04-10T10:44:31.755Z,50.20
2023-04-10T10:46:58.244Z,50.50
2023-04-10T10:49:24.718Z,50.20
2023-04-10T10:51:51.200Z,50.50
2023-04-10T10:54:17.666Z,50.30
2023-04-10T10:56:44.145Z,50.50
2023-04-10T10:59:10.615Z,50.50
2023-04-10T11:01:37.120Z,50.70
2023-04-10T11:04:03.820Z,50.60
2023-04-10T11:06:30.387Z,50.30
2023-04-10T11:08:57.146Z,50.50
2023-04-10T11:11:23.975Z,50.30
2023-04-10T11:13:50.486Z,50.50
2023-04-10T11:16:16.996Z,50.50
2023-04-10T11:18:43.501Z,50.30
2023-04-10T11:21:09.969Z,50.30
2023-04-10T11:23:36.474Z,50.60
2023-04-10T11:26:02.942Z,50.10
2023-04-10T11:28:29.407Z,50.20
2023-04-10T11:30:55.877Z,50.60
2023-04-10T11:33:22.343Z,50.40
2023-04-10T11:35:48.888Z,50.80
2023-04-10T11:38:15.437Z,51.20
2023-04-10T11:40:41.964Z,51.30
2023-04-10T11:43:08.435Z,50.10
2023-04-10T11:45:34.945Z,50.30
2023-04-10T11:48:01.452Z,50.70
2023-04-10T11:50:27.962Z,50.30
2023-04-10T11:52:55.989Z,50.20
2023-04-10T11:55:23.037Z,50.60
2023-04-10T11:57:49.510Z,50.80
2023-04-10T12:00:15.995Z,51.10
2023-04-10T12:02:42.595Z,50.10
2023-04-10T12:05:09.223Z,51.10
2023-04-10T12:07:35.728Z,50.20
2023-04-10T12:10:02.204Z,50.80
2023-04-10T12:12:28.664Z,50.90
2023-04-10T12:14:55.156Z,50.00
2023-04-10T12:17:21.669Z,50.10
2023-04-10T12:19:48.134Z,51.00
2023-04-10T12:22:14.608Z,50.30
2023-04-10T12:24:41.084Z,51.10
2023-04-10T12:27:07.592Z,50.80
2023-04-10T12:29:34.078Z,50.80
2023-04-10T12:32:00.559Z,50.50
2023-04-10T12:34:27.045Z,50.70
2023-04-10T12:36:53.512Z,50.70
2023-04-10T12:39:20.010Z,51.00
2023-04-10T12:41:46.460Z,50.60
2023-04-10T12:44:12.996Z,50.90
2023-04-10T12:46:39.535Z,50.20
2023-04-10T12:49:06.040Z,50.80
2023-04-10T12:51:32.511Z,50.90
2023-04-10T12:53:58.978Z,50.70
2023-04-10T12:56:25.455Z,50.50
2023-04-10T12:58:52.087Z,50.70
2023-04-10T13:01:18.709Z,50.50
2023-04-10T13:03:45.363Z,50.60
2023-04-10T13:09:01.998Z,49.90
2023-04-10T13:11:28.507Z,50.70
2023-04-10T13:13:54.965Z,50.70
2023-04-10T13:16:21.480Z,50.70
2023-04-10T13:18:48.008Z,50.60
2023-04-10T13:21:14.484Z,50.60
2023-04-10T13:23:40.958Z,50.50
2023-04-10T13:26:07.421Z,50.70
2023-04-10T13:28:33.873Z,50.70
2023-04-10T13:31:00.393Z,50.60
2023-04-10T13:33:26.926Z,50.20
2023-04-10T13:35:53.505Z,50.60
2023-04-10T13:38:21.286Z,50.70
2023-04-10T13:40:48.014Z,50.60
2023-04-10T13:43:14.479Z,50.40
2023-04-10T13:45:40.969Z,50.30
2023-04-10T13:48:07.498Z,50.70
2023-04-10T13:50:34.071Z,50.70
2023-04-10T13:53:00.554Z,50.40
2023-04-10T13:55:27.008Z,50.60
2023-04-10T13:57:53.485Z,50.70
2023-04-10T14:00:19.948Z,49.70
2023-04-10T14:02:46.587Z,50.70
2023-04-10T14:05:13.122Z,49.90
2023-04-10T14:07:39.815Z,50.40
2023-04-10T14:10:06.277Z,50.40
2023-04-10T14:12:32.766Z,50.50
2023-04-10T14:14:59.215Z,50.20
2023-04-10T14:17:25.795Z,50.30
2023-04-10T14:19:52.315Z,50.30
2023-04-10T14:22:18.832Z,50.10
2023-04-10T14:24:45.297Z,50.40
2023-04-10T14:27:13.317Z,50.20
2023-04-10T14:29:47.367Z,50.30
2023-04-10T14:32:20.681Z,50.30
2023-04-10T14:34:47.197Z,50.00
2023-04-10T14:37:15.300Z,50.30
2023-04-10T14:39:42.083Z,50.40
2023-04-10T14:42:08.554Z,50.20
2023-04-10T14:44:35.037Z,50.30
2023-04-10T14:47:01.521Z,50.60
2023-04-10T14:49:28.003Z,49.60
2023-04-10T14:51:54.478Z,50.50
2023-04-10T14:54:20.942Z,50.30
2023-04-10T14:56:47.444Z,50.50
2023-04-10T14:59:13.909Z,50.40
2023-04-10T15:01:40.606Z,50.30
2023-04-10T15:04:07.199Z,50.40
2023-04-10T15:06:33.732Z,50.10
2023-04-10T15:09:00.214Z,50.30
2023-04-10T15:11:26.685Z,50.00
2023-04-10T15:13:53.412Z,50.40
2023-04-10T15:16:20.111Z,50.30
2023-04-10T15:18:46.662Z,50.70
2023-04-10T15:21:13.127Z,50.60
2023-04-10T15:23:39.586Z,50.40
2023-04-10T15:26:06.065Z,50.20
2023-04-10T15:28:32.551Z,50.60
2023-04-10T15:30:59.049Z,50.50
2023-04-10T15:33:25.574Z,50.60
2023-04-10T15:35:52.241Z,50.30
2023-04-10T15:38:18.746Z,50.50
2023-04-10T15:40:45.223Z,50.20
2023-04-10T15:43:11.698Z,50.50
2023-04-10T15:45:38.166Z,50.60
2023-04-10T15:48:04.802Z,50.60
2023-04-10T15:50:31.424Z,50.70
2023-04-10T15:52:57.925Z,50.60
2023-04-10T15:55:24.431Z,50.60
2023-04-10T15:57:50.896Z,50.40
2023-04-10T16:00:17.370Z,50.20
2023-04-10T16:02:44.185Z,50.00
2023-04-10T16:05:10.876Z,50.70
2023-04-10T16:07:37.381Z,50.60
2023-04-10T16:10:03.876Z,50.80
2023-04-10T16:12:30.373Z,50.30
2023-04-10T16:14:56.837Z,51.00
2023-04-10T16:17:23.352Z,50.70
2023-04-10T16:19:49.837Z,50.30
2023-04-10T16:22:16.292Z,50.60
2023-04-10T16:24:42.778Z,50.40
2023-04-10T16:27:12.275Z,49.30
2023-04-10T16:29:38.747Z,50.40
2023-04-10T16:32:05.214Z,49.70
2023-04-10T16:34:31.694Z,49.70
2023-04-10T16:36:58.179Z,50.80
2023-04-10T16:39:24.652Z,49.30
2023-04-10T16:41:51.108Z,50.60
2023-04-10T16:44:17.576Z,48.80
2023-04-10T16:46:44.089Z,50.00
2023-04-10T16:49:10.622Z,49.00
2023-04-10T16:51:37.103Z,50.30
2023-04-10T16:54:03.571Z,50.30
2023-04-10T16:56:30.041Z,48.80
2023-04-10T16:58:56.857Z,50.30
2023-04-10T17:01:23.701Z,49.70
2023-04-10T17:03:50.367Z,50.30
2023-04-10T17:06:16.860Z,49.70
2023-04-10T17:08:43.360Z,49.50
2023-04-10T17:11:09.835Z,49.80
2023-04-10T17:13:36.313Z,50.30
2023-04-10T17:16:02.785Z,50.30
2023-04-10T17:18:29.255Z,49.80
2023-04-10T17:20:55.722Z,50.30
2023-04-10T17:23:22.197Z,50.30
2023-04-10T17:25:48.727Z,50.50
2023-04-10T17:28:15.240Z,50.40
2023-04-10T17:30:41.706Z,50.50
2023-04-10T17:33:08.216Z,50.40
2023-04-10T17:35:34.754Z,49.40
2023-04-10T17:38:01.236Z,50.50
2023-04-10T17:40:27.724Z,50.70
2023-04-10T17:42:54.194Z,50.70
2023-04-10T17:45:20.665Z,50.30
2023-04-10T17:47:47.157Z,49.90
2023-04-10T17:50:13.669Z,50.70
2023-04-10T17:52:40.131Z,50.80
2023-04-10T17:55:06.597Z,50.80
2023-04-10T17:57:33.070Z,50.80
2023-04-10T17:59:59.538Z,50.90
2023-04-10T18:02:26.080Z,50.40
2023-04-10T18:04:52.650Z,50.70
2023-04-10T18:07:19.125Z,51.00
2023-04-10T18:09:45.587Z,51.00
2023-04-10T18:12:12.055Z,50.90
2023-04-10T18:14:38.538Z,50.90
2023-04-10T18:17:05.058Z,51.00
2023-04-10T18:19:31.592Z,50.50
2023-04-10T18:21:58.055Z,51.30
2023-04-10T18:24:24.556Z,51.10
2023-04-10T18:26:51.030Z,51.20
2023-04-10T18:29:17.499Z,51.00
2023-04-10T18:31:43.970Z,51.30
2023-04-10T18:34:10.711Z,51.30
2023-04-10T18:36:37.291Z,51.10
2023-04-10T18:39:03.765Z,51.40
2023-04-10T18:41:30.225Z,51.40
2023-04-10T18:44:05.368Z,51.80
2023-04-10T18:46:32.335Z,51.50
2023-04-10T18:48:59.108Z,51.80
2023-04-10T18:51:25.607Z,51.70
2023-04-10T18:53:52.172Z,51.90
2023-04-10T18:56:18.767Z,51.80
2023-04-10T18:58:46.460Z,51.60
2023-04-10T19:01:14.052Z,51.80
2023-04-10T19:03:40.770Z,51.90
2023-04-10T19:06:07.465Z,51.70
2023-04-10T19:08:33.935Z,52.00
2023-04-10T19:11:00.434Z,51.90
2023-04-10T19:13:30.377Z,51.90
2023-04-10T19:15:56.870Z,51.90
2023-04-10T19:18:23.322Z,52.00
2023-04-10T19:20:52.995Z,52.00
2023-04-10T19:23:20.044Z,52.20
2023-04-10T19:25:46.530Z,52.20
2023-04-10T19:28:18.446Z,52.20
2023-04-10T19:30:44.937Z,52.30
2023-04-10T19:33:11.413Z,52.40
2023-04-10T19:35:37.930Z,52.50
2023-04-10T19:38:04.421Z,52.40
2023-04-10T19:40:30.894Z,52.40
2023-04-10T19:43:00.517Z,52.80
2023-04-10T19:45:27.036Z,52.80
2023-04-10T19:47:53.563Z,52.80
2023-04-10T19:50:20.050Z,53.40
2023-04-10T19:52:46.549Z,54.70
2023-04-10T19:55:13.235Z,55.30
2023-04-10T19:57:39.723Z,55.60
2023-04-10T20:00:06.252Z,55.60
2023-04-10T20:02:32.995Z,55.60
2023-04-10T20:04:59.759Z,55.90
2023-04-10T20:07:26.286Z,56.60
2023-04-10T20:09:52.771Z,56.60
2023-04-10T20:12:19.257Z,57.80
2023-04-10T20:14:45.728Z,57.70
2023-04-10T20:17:12.192Z,56.50
2023-04-10T20:19:38.685Z,57.10
2023-04-10T20:22:05.180Z,56.80
2023-04-10T20:24:31.658Z,57.10
2023-04-10T20:26:58.121Z,56.80
2023-04-10T20:29:24.594Z,56.40
2023-04-10T20:31:51.084Z,56.60
2023-04-10T20:34:17.607Z,56.70
2023-04-10T20:36:44.112Z,57.00
2023-04-10T20:39:10.583Z,57.20
2023-04-10T20:41:37.066Z,57.00
2023-04-10T20:44:03.524Z,58.20
2023-04-10T20:46:30.027Z,58.10
2023-04-10T20:48:56.529Z,58.00
2023-04-10T20:51:22.977Z,57.90
2023-04-10T20:53:49.424Z,58.10
2023-04-10T20:56:15.948Z,58.70
2023-04-10T20:58:42.417Z,58.70
2023-04-10T21:01:09.025Z,58.50
2023-04-10T21:03:35.669Z,58.00
2023-04-10T21:06:02.159Z,58.30
2023-04-10T21:08:28.621Z,58.60
2023-04-10T21:10:55.082Z,58.60
2023-04-10T21:13:21.564Z,58.70
2023-04-10T21:15:48.044Z,58.40
2023-04-10T21:18:14.543Z,59.10
2023-04-10T21:20:41.024Z,58.70
2023-04-10T21:23:07.514Z,58.70
2023-04-10T21:25:33.991Z,58.80
2023-04-10T21:28:00.526Z,58.40
2023-04-10T21:30:26.969Z,58.80
2023-04-10T21:32:53.488Z,58.40
2023-04-10T21:35:19.953Z,58.30
2023-04-10T21:37:46.411Z,58.30
2023-04-10T21:40:12.892Z,58.30
2023-04-10T21:42:39.377Z,57.60
2023-04-10T21:45:05.853Z,57.80
2023-04-10T21:47:32.335Z,57.80
2023-04-10T21:49:58.811Z,58.60
2023-04-10T21:52:25.275Z,58.10
2023-04-10T21:54:51.734Z,57.50
2023-04-10T21:57:18.216Z,57.30
2023-04-10T21:59:44.712Z,57.70
2023-04-10T22:02:11.243Z,58.00
2023-04-10T22:04:47.838Z,57.70
2023-04-10T22:07:20.266Z,57.70
2023-04-10T22:09:46.747Z,57.20
2023-04-10T22:12:13.240Z,57.60
2023-04-10T22:14:39.730Z,57.60
2023-04-10T22:17:06.274Z,57.60
2023-04-10T22:19:32.771Z,58.00
2023-04-10T22:21:59.238Z,57.60
2023-04-10T22:24:25.731Z,58.00
2023-04-10T22:26:52.222Z,57.60
2023-04-10T22:29:18.710Z,57.90
2023-04-10T22:31:45.196Z,58.00
2023-04-10T22:34:11.695Z,57.70
2023-04-10T22:36:38.174Z,58.40
2023-04-10T22:39:04.669Z,58.10
2023-04-10T22:41:31.149Z,58.30
2023-04-10T22:43:57.623Z,57.80
2023-04-10T22:46:24.118Z,58.40
2023-04-10T22:48:50.616Z,57.70
2023-04-10T22:51:17.082Z,58.00
2023-04-10T22:53:43.594Z,57.80
2023-04-10T22:56:10.051Z,57.80
2023-04-10T22:58:36.545Z,57.90
2023-04-10T23:01:03.027Z,57.90
2023-04-10T23:03:29.547Z,57.80
2023-04-10T23:05:56.045Z,57.80
2023-04-10T23:08:22.516Z,57.80
2023-04-10T23:10:48.987Z,58.40
2023-04-10T23:13:15.461Z,58.10
2023-04-10T23:15:42.003Z,58.40
2023-04-10T23:18:08.526Z,58.10
2023-04-10T23:20:35.054Z,58.00
2023-04-10T23:23:01.556Z,58.10
2023-04-10T23:25:28.071Z,58.00
2023-04-10T23:27:54.565Z,58.00
2023-04-10T23:30:21.044Z,58.10
2023-04-10T23:32:47.553Z,58.10
2023-04-10T23:35:14.086Z,58.40
2023-04-10T23:37:40.553Z,58.70
2023-04-10T23:40:07.029Z,59.00
2023-04-10T23:42:33.502Z,58.70
2023-04-10T23:44:59.990Z,58.80
2023-04-10T23:47:26.450Z,58.60
2023-04-10T23:49:52.942Z,58.90
2023-04-10T23:52:19.401Z,58.80
2023-04-10T23:54:45.881Z,58.70
2023-04-10T23:57:12.344Z,59.10
2023-04-10T23:59:38.824Z,59.00
